createdAt,value
2023-01-29T00:00:25.185Z,100982.37
2023-01-29T00:03:53.355Z,100984.06
2023-01-29T00:07:18.530Z,100988.84
2023-01-29T00:10:44.034Z,100983.25
2023-01-29T00:14:10.804Z,100976.19
2023-01-29T00:17:37.401Z,100975.97
2023-01-29T00:21:02.278Z,100983.19
2023-01-29T00:24:27.835Z,100990.88
2023-01-29T00:27:55.916Z,100999.75
2023-01-29T00:31:24.034Z,100982.47
2023-01-29T00:34:49.465Z,100999.34
2023-01-29T00:38:14.983Z,100998.66
2023-01-29T00:41:57.607Z,101007.16
2023-01-29T00:45:23.302Z,101007.88
2023-01-29T00:48:50.280Z,101007.34
2023-01-29T00:52:28.329Z,101011.22
2023-01-29T00:55:53.708Z,101010.56
2023-01-29T00:59:19.125Z,101005.84
2023-01-29T01:03:01.748Z,101010.13
2023-01-29T01:06:28.592Z,101004.03
2023-01-29T01:10:10.501Z,101006.22
2023-01-29T01:13:36.831Z,101008.19
2023-01-29T01:17:02.458Z,101016.41
2023-01-29T01:20:28.179Z,101012.78
2023-01-29T01:23:54.541Z,101016.59
2023-01-29T01:27:20.242Z,101013.88
2023-01-29T01:30:45.377Z,101007.16
2023-01-29T01:34:14.145Z,101017.06
2023-01-29T01:37:39.666Z,101014.03
2023-01-29T01:41:07.025Z,101010.28
2023-01-29T01:45:08.688Z,101011.38
2023-01-29T01:48:35.426Z,101013.13
2023-01-29T01:52:01.668Z,101019.75
2023-01-29T01:55:29.320Z,101026.03
2023-01-29T01:58:57.510Z,101032.88
2023-01-29T02:02:40.666Z,101043.13
2023-01-29T02:06:24.806Z,101051.75
2023-01-29T02:09:52.178Z,101048.22
2023-01-29T02:13:21.881Z,101045.75
2023-01-29T02:16:49.040Z,101046.94
2023-01-29T02:20:20.051Z,101041.78
2023-01-29T02:24:13.947Z,101052.84
2023-01-29T02:27:55.265Z,101051.91
2023-01-29T02:31:30.333Z,101051.97
2023-01-29T02:35:18.147Z,101047.75
2023-01-29T02:38:46.630Z,101048.03
2023-01-29T02:42:15.437Z,101057.25
2023-01-29T02:45:46.793Z,101063.31
2023-01-29T02:49:15.921Z,101060.66
2023-01-29T02:52:45.679Z,101063.47
2023-01-29T02:56:16.384Z,101066.41
2023-01-29T02:59:43.094Z,101066.34
2023-01-29T03:03:10.453Z,101073.81
2023-01-29T03:06:39.930Z,101077.47
2023-01-29T03:10:05.994Z,101088.59
2023-01-29T03:13:36.119Z,101094.00
2023-01-29T03:17:02.047Z,101098.59
2023-01-29T03:20:30.246Z,101102.00
2023-01-29T03:24:14.622Z,101092.62
2023-01-29T03:27:58.329Z,101092.69
2023-01-29T03:31:42.458Z,101097.28
2023-01-29T03:35:09.347Z,101099.50
2023-01-29T03:38:35.543Z,101096.59
2023-01-29T03:42:05.192Z,101098.41
2023-01-29T03:45:45.995Z,101109.38
2023-01-29T03:49:14.492Z,101113.03
2023-01-29T03:52:42.730Z,101115.09
2023-01-29T03:56:09.612Z,101111.25
2023-01-29T03:59:40.732Z,101106.75
2023-01-29T04:03:09.220Z,101118.50
2023-01-29T04:06:36.380Z,101118.87
2023-01-29T04:10:02.408Z,101119.44
2023-01-29T04:13:28.135Z,101114.47
2023-01-29T04:16:56.007Z,101114.13
2023-01-29T04:20:22.343Z,101107.53
2023-01-29T04:23:47.863Z,101112.41
2023-01-29T04:27:23.727Z,101113.22
2023-01-29T04:30:52.882Z,101109.31
2023-01-29T04:34:24.593Z,101103.25
2023-01-29T04:37:53.287Z,101105.38
2023-01-29T04:41:23.271Z,101106.50
2023-01-29T04:44:53.091Z,101098.88
2023-01-29T04:48:22.189Z,101106.56
2023-01-29T04:51:56.963Z,101101.94
2023-01-29T04:55:24.017Z,101093.50
2023-01-29T04:58:51.476Z,101096.97
2023-01-29T05:02:17.613Z,101115.59
2023-01-29T05:05:46.506Z,101106.78
2023-01-29T05:09:14.282Z,101110.72
2023-01-29T05:12:40.107Z,101116.03
2023-01-29T05:16:13.171Z,101120.53
2023-01-29T05:19:38.518Z,101119.75
2023-01-29T05:23:04.983Z,101114.41
2023-01-29T05:26:48.704Z,101102.97
2023-01-29T05:30:14.976Z,101109.25
2023-01-29T05:33:40.657Z,101123.09
2023-01-29T05:37:08.842Z,101113.62
2023-01-29T05:40:33.646Z,101107.50
2023-01-29T05:44:00.290Z,101123.78
2023-01-29T05:47:25.403Z,101121.87
2023-01-29T05:50:51.025Z,101109.09
2023-01-29T05:54:16.242Z,101103.75
2023-01-29T05:57:43.386Z,101097.63
2023-01-29T06:01:14.743Z,101107.09
2023-01-29T06:04:40.781Z,101112.00
2023-01-29T06:08:06.185Z,101109.06
2023-01-29T06:11:32.609Z,101108.50
2023-01-29T06:14:57.743Z,101114.19
2023-01-29T06:18:25.402Z,101118.25
2023-01-29T06:21:50.813Z,101126.91
2023-01-29T06:25:17.368Z,101137.63
2023-01-29T06:28:42.751Z,101135.44
2023-01-29T06:32:08.945Z,101142.47
2023-01-29T06:35:35.838Z,101146.22
2023-01-29T06:39:01.875Z,101153.56
2023-01-29T06:42:28.747Z,101165.31
2023-01-29T06:45:56.035Z,101167.00
2023-01-29T06:49:21.009Z,101175.84
2023-01-29T06:52:48.267Z,101182.28
2023-01-29T06:56:13.102Z,101187.34
2023-01-29T06:59:39.237Z,101185.38
2023-01-29T07:03:04.486Z,101188.25
2023-01-29T07:06:31.096Z,101193.53
2023-01-29T07:09:57.501Z,101196.06
2023-01-29T07:13:23.329Z,101190.56
2023-01-29T07:16:48.330Z,101185.06
2023-01-29T07:20:14.803Z,101181.50
2023-01-29T07:23:40.779Z,101171.12
2023-01-29T07:27:07.545Z,101163.63
2023-01-29T07:30:32.755Z,101157.47
2023-01-29T07:33:58.327Z,101165.41
2023-01-29T07:37:23.231Z,101151.28
2023-01-29T07:40:49.113Z,101149.44
2023-01-29T07:44:16.164Z,101153.03
2023-01-29T07:47:41.906Z,101161.50
2023-01-29T07:51:06.742Z,101156.16
2023-01-29T07:54:39.815Z,101152.88
2023-01-29T07:58:05.921Z,101150.34
2023-01-29T08:01:33.177Z,101156.56
2023-01-29T08:04:59.109Z,101156.16
2023-01-29T08:08:24.315Z,101143.75
2023-01-29T08:11:49.943Z,101147.38
2023-01-29T08:15:14.851Z,101149.72
2023-01-29T08:18:45.294Z,101149.72
2023-01-29T08:22:10.892Z,101146.88
2023-01-29T08:25:36.204Z,101144.38
2023-01-29T08:29:01.321Z,101143.28
2023-01-29T08:32:27.252Z,101155.87
2023-01-29T08:35:53.788Z,101155.16
2023-01-29T08:39:20.025Z,101158.34
2023-01-29T08:42:44.823Z,101164.66
2023-01-29T08:46:10.805Z,101179.75
2023-01-29T08:49:37.220Z,101181.38
2023-01-29T08:53:04.558Z,101181.66
2023-01-29T08:56:31.815Z,101199.00
2023-01-29T08:59:58.290Z,101194.56
2023-01-29T09:03:23.805Z,101204.34
2023-01-29T09:06:48.780Z,101203.50
2023-01-29T09:10:17.105Z,101206.91
2023-01-29T09:13:43.108Z,101207.06
2023-01-29T09:17:08.303Z,101211.25
2023-01-29T09:20:33.740Z,101205.25
2023-01-29T09:23:58.624Z,101213.53
2023-01-29T09:27:25.473Z,101205.34
2023-01-29T09:30:50.318Z,101209.53
2023-01-29T09:34:16.220Z,101209.66
2023-01-29T09:37:41.931Z,101205.75
2023-01-29T09:41:11.640Z,101205.81
2023-01-29T09:44:51.194Z,101214.69
2023-01-29T09:48:16.851Z,101208.56
2023-01-29T09:51:43.704Z,101209.53
2023-01-29T09:55:15.535Z,101210.50
2023-01-29T09:58:41.474Z,101215.81
2023-01-29T10:02:12.831Z,101216.78
2023-01-29T10:05:51.229Z,101214.22
2023-01-29T10:09:58.324Z,101213.25
2023-01-29T10:13:29.475Z,101215.81
2023-01-29T10:17:06.830Z,101216.69
2023-01-29T10:20:41.815Z,101213.91
2023-01-29T10:24:19.713Z,101211.22
2023-01-29T10:27:50.555Z,101217.28
2023-01-29T10:31:16.925Z,101218.34
2023-01-29T10:34:47.739Z,101210.72
2023-01-29T10:38:23.635Z,101212.00
2023-01-29T10:41:59.566Z,101200.44
2023-01-29T10:45:28.051Z,101201.66
2023-01-29T10:49:02.587Z,101204.41
2023-01-29T10:52:36.293Z,101201.69
2023-01-29T10:56:20.970Z,101196.19
2023-01-29T10:59:58.566Z,101197.28
2023-01-29T11:03:28.248Z,101192.75
2023-01-29T11:06:53.488Z,101173.97
2023-01-29T11:10:19.923Z,101179.53
2023-01-29T11:13:53.540Z,101172.25
2023-01-29T11:17:19.402Z,101163.41
2023-01-29T11:20:44.693Z,101163.41
2023-01-29T11:24:17.511Z,101158.25
2023-01-29T11:27:46.337Z,101159.03
2023-01-29T11:31:24.884Z,101167.19
2023-01-29T11:35:06.594Z,101157.25
2023-01-29T11:38:35.079Z,101155.56
2023-01-29T11:42:01.353Z,101146.03
2023-01-29T11:45:31.135Z,101143.38
2023-01-29T11:48:59.322Z,101139.78
2023-01-29T11:52:40.931Z,101133.41
2023-01-29T11:56:08.245Z,101123.66
2023-01-29T11:59:43.311Z,101118.69
2023-01-29T12:03:09.852Z,101108.47
2023-01-29T12:06:39.053Z,101095.34
2023-01-29T12:10:04.374Z,101097.87
2023-01-29T12:13:31.657Z,101096.91
2023-01-29T12:16:57.583Z,101090.47
2023-01-29T12:20:26.533Z,101095.22
2023-01-29T12:24:03.445Z,101095.34
2023-01-29T12:27:33.058Z,101096.22
2023-01-29T12:31:09.329Z,101094.75
2023-01-29T12:34:42.932Z,101097.50
2023-01-29T12:38:11.112Z,101103.50
2023-01-29T12:41:46.275Z,101104.75
2023-01-29T12:45:13.206Z,101105.63
2023-01-29T12:48:41.923Z,101096.62
2023-01-29T12:52:10.608Z,101093.97
2023-01-29T12:55:38.044Z,101092.25
2023-01-29T12:59:07.675Z,101095.59
2023-01-29T13:02:38.288Z,101086.84
2023-01-29T13:06:05.685Z,101092.09
2023-01-29T13:09:33.033Z,101089.66
2023-01-29T13:13:00.276Z,101098.31
2023-01-29T13:16:29.454Z,101079.88
2023-01-29T13:19:56.047Z,101069.31
2023-01-29T13:23:23.506Z,101061.34
2023-01-29T13:26:49.212Z,101059.63
2023-01-29T13:30:31.525Z,101046.09
2023-01-29T13:34:01.870Z,101045.31
2023-01-29T13:37:31.207Z,101041.34
2023-01-29T13:40:56.796Z,101038.06
2023-01-29T13:44:25.520Z,101027.44
2023-01-29T13:47:51.118Z,101017.34
2023-01-29T13:51:27.072Z,101012.12
2023-01-29T13:54:57.921Z,101028.66
2023-01-29T13:58:57.383Z,101022.75
2023-01-29T14:02:24.330Z,101026.56
2023-01-29T14:06:00.468Z,101033.28
2023-01-29T14:09:59.167Z,101037.16
2023-01-29T14:13:37.319Z,101045.00
2023-01-29T14:17:04.937Z,101019.66
2023-01-29T14:20:46.362Z,101016.37
2023-01-29T14:24:19.117Z,101038.59
2023-01-29T14:27:49.854Z,101025.06
2023-01-29T14:31:15.665Z,101043.06
2023-01-29T14:34:53.667Z,101039.56
2023-01-29T14:38:22.590Z,101038.69
2023-01-29T14:41:52.344Z,101040.59
2023-01-29T14:45:27.448Z,101035.25
2023-01-29T14:48:54.196Z,101029.84
2023-01-29T14:52:19.815Z,101045.81
2023-01-29T14:55:47.175Z,101037.97
2023-01-29T14:59:19.064Z,101044.28
2023-01-29T15:02:48.132Z,101044.28
2023-01-29T15:06:18.063Z,101054.81
2023-01-29T15:09:47.014Z,101053.91
2023-01-29T15:13:21.904Z,101040.66
2023-01-29T15:16:52.337Z,101045.16
2023-01-29T15:20:33.008Z,101045.31
2023-01-29T15:24:09.382Z,101050.63
2023-01-29T15:27:35.694Z,101048.28
2023-01-29T15:31:03.129Z,101043.22
2023-01-29T15:34:31.317Z,101041.59
2023-01-29T15:38:06.304Z,101042.34
2023-01-29T15:41:34.075Z,101035.41
2023-01-29T15:45:03.793Z,101036.31
2023-01-29T15:48:32.998Z,101034.91
2023-01-29T15:52:00.665Z,101044.97
2023-01-29T15:55:32.434Z,101043.56
2023-01-29T15:59:01.984Z,101055.19
2023-01-29T16:02:41.039Z,101051.56
2023-01-29T16:06:09.363Z,101060.41
2023-01-29T16:09:35.610Z,101059.53
2023-01-29T16:13:03.583Z,101065.59
2023-01-29T16:16:30.092Z,101059.69
2023-01-29T16:20:00.818Z,101063.91
2023-01-29T16:23:29.553Z,101064.25
2023-01-29T16:27:01.440Z,101057.19
2023-01-29T16:30:30.028Z,101060.63
2023-01-29T16:34:01.467Z,101070.47
2023-01-29T16:37:28.624Z,101079.34
2023-01-29T16:41:15.069Z,101080.19
2023-01-29T16:44:41.574Z,101076.72
2023-01-29T16:48:28.705Z,101087.38
2023-01-29T16:51:57.098Z,101089.06
2023-01-29T16:55:25.804Z,101089.03
2023-01-29T16:59:13.547Z,101093.47
2023-01-29T17:02:54.089Z,101093.50
2023-01-29T17:06:25.599Z,101099.59
2023-01-29T17:09:52.812Z,101085.47
2023-01-29T17:13:27.022Z,101097.84
2023-01-29T17:16:55.710Z,101096.84
2023-01-29T17:20:23.580Z,101099.56
2023-01-29T17:23:55.167Z,101096.84
2023-01-29T17:27:26.436Z,101097.78
2023-01-29T17:31:05.536Z,101079.97
2023-01-29T17:34:32.694Z,101088.88
2023-01-29T17:38:00.470Z,101077.34
2023-01-29T17:41:31.418Z,101070.25
2023-01-29T17:45:09.232Z,101073.69
2023-01-29T17:48:42.846Z,101071.88
2023-01-29T17:52:10.914Z,101059.50
2023-01-29T17:55:45.437Z,101052.47
2023-01-29T17:59:16.273Z,101052.38
2023-01-29T18:02:45.716Z,101051.34
2023-01-29T18:06:13.872Z,101042.81
2023-01-29T18:09:43.443Z,101032.28
2023-01-29T18:13:11.788Z,101029.84
2023-01-29T18:16:39.683Z,101030.78
2023-01-29T18:20:20.319Z,101036.91
2023-01-29T18:23:51.380Z,101025.62
2023-01-29T18:27:20.914Z,101026.47
2023-01-29T20:44:38.920Z,100982.44
2023-01-29T20:48:03.722Z,100987.66
2023-01-29T20:51:27.872Z,100985.00
2023-01-29T20:54:52.422Z,100992.91
2023-01-29T20:58:16.995Z,100995.47
2023-01-29T21:01:43.132Z,100989.28
2023-01-29T21:05:07.823Z,100982.31
2023-01-29T21:08:32.115Z,100989.22
2023-01-29T21:11:56.454Z,101000.78
2023-01-29T21:15:20.697Z,100996.31
2023-01-29T21:18:46.933Z,101006.94
2023-01-29T21:22:12.816Z,100998.16
2023-01-29T21:25:36.766Z,100999.00
2023-01-29T21:29:00.789Z,101004.28
2023-01-29T21:32:25.120Z,101006.06
2023-01-29T21:35:58.604Z,101015.78
2023-01-29T21:39:24.398Z,101017.59
2023-01-29T21:43:05.175Z,101029.87
2023-01-29T21:46:27.841Z,101030.78
2023-01-29T21:49:51.208Z,101016.66
2023-01-29T21:53:15.538Z,101012.28
2023-01-29T21:56:38.005Z,101004.38
2023-01-29T22:00:01.135Z,100999.97
2023-01-29T22:03:26.485Z,101000.81
2023-01-29T22:06:49.681Z,100992.91
2023-01-29T22:10:13.666Z,100992.94
2023-01-29T22:13:36.346Z,100992.94
2023-01-29T22:16:58.981Z,100996.44
2023-01-29T22:20:29.701Z,100987.66
2023-01-29T22:23:52.044Z,100978.03
2023-01-29T22:27:16.256Z,100968.28
2023-01-29T22:30:41.478Z,100969.22
2023-01-29T22:34:04.448Z,100965.63
2023-01-29T22:37:26.969Z,100955.94
2023-01-29T22:40:51.012Z,100946.25
2023-01-29T22:44:14.691Z,100952.47
2023-01-29T22:47:37.055Z,100942.78
2023-01-29T22:51:10.065Z,100941.03
2023-01-29T22:54:32.949Z,100941.87
2023-01-29T22:57:55.469Z,100940.12
2023-01-29T23:01:20.601Z,100942.81
2023-01-29T23:04:43.165Z,100934.88
2023-01-29T23:08:06.466Z,100941.13
2023-01-29T23:11:29.129Z,100936.59
2023-01-29T23:14:51.698Z,100926.97
2023-01-29T23:18:15.638Z,100927.00
2023-01-29T23:21:38.497Z,100935.03
2023-01-29T23:25:02.835Z,100931.47
2023-01-29T23:28:24.915Z,100929.72
2023-01-29T23:31:47.603Z,100926.16
2023-01-29T23:35:11.919Z,100917.41
2023-01-29T23:38:34.464Z,100923.53
2023-01-29T23:42:00.160Z,100912.16
2023-01-29T23:45:22.731Z,100918.31
2023-01-29T23:48:45.758Z,100918.37
2023-01-29T23:52:09.711Z,100913.06
2023-01-29T23:55:32.293Z,100904.28
2023-01-29T23:58:55.596Z,100903.38
